<?xml version="1.0" encoding="UTF-8" standalone="no" ?>
<gpx xmlns="http://www.topografix.com/GPX/1/1" xmlns:xsi="http://www.w3.org/2001/XMLSchema-instance" xsi:schemaLocation="http://www.topografix.com/GPX/1/1 http://www.topografix.com/GPX/1/1/gpx.xsd" version="1.1" creator="VisuGPX - https://www.visugpx.com">
  <metadata>
    <name>randonnée la bresse</name>
    <desc><![CDATA[itinéraire: circuit en boucle : pont de Blanchemer, lac de Blanchemer,  chalet de Machey, tour de la tourbière de Machey, lac de Blanchemer,   pont de Blanchemer.
]]></desc>
  </metadata>
  <trk>
    <name><![CDATA[2015-03-03 16:24:51]]></name>
    <trkseg>
      <trkpt lat="48.02493" lon="6.95961">
        <ele>739.39</ele>
        <time>2015-03-03T09:14:59Z</time>
      </trkpt>
      <trkpt lat="48.02499" lon="6.95962">
        <ele>920.12</ele>
        <time>2015-03-03T09:15:28Z</time>
      </trkpt>
      <trkpt lat="48.02498" lon="6.95962">
        <ele>847.54</ele>
        <time>2015-03-03T09:15:37Z</time>
      </trkpt>
      <trkpt lat="48.02492" lon="6.96026">
        <ele>851.38</ele>
        <time>2015-03-03T09:18:12Z</time>
      </trkpt>
      <trkpt lat="48.02497" lon="6.96114">
        <ele>858.59</ele>
        <time>2015-03-03T09:19:25Z</time>
      </trkpt>
      <trkpt lat="48.02503" lon="6.96155">
        <ele>861.96</ele>
        <time>2015-03-03T09:20:00Z</time>
      </trkpt>
      <trkpt lat="48.02507" lon="6.96186">
        <ele>863.88</ele>
        <time>2015-03-03T09:20:28Z</time>
      </trkpt>
      <trkpt lat="48.02506" lon="6.96219">
        <ele>866.29</ele>
        <time>2015-03-03T09:20:56Z</time>
      </trkpt>
      <trkpt lat="48.02502" lon="6.9625">
        <ele>868.21</ele>
        <time>2015-03-03T09:21:25Z</time>
      </trkpt>
      <trkpt lat="48.02492" lon="6.96274">
        <ele>871.09</ele>
        <time>2015-03-03T09:21:53Z</time>
      </trkpt>
      <trkpt lat="48.02477" lon="6.96294">
        <ele>873.98</ele>
        <time>2015-03-03T09:22:18Z</time>
      </trkpt>
      <trkpt lat="48.02463" lon="6.96324">
        <ele>876.38</ele>
        <time>2015-03-03T09:22:42Z</time>
      </trkpt>
      <trkpt lat="48.02459" lon="6.96356">
        <ele>879.26</ele>
        <time>2015-03-03T09:23:06Z</time>
      </trkpt>
      <trkpt lat="48.02453" lon="6.96385">
        <ele>881.67</ele>
        <time>2015-03-03T09:23:30Z</time>
      </trkpt>
      <trkpt lat="48.02443" lon="6.96407">
        <ele>883.59</ele>
        <time>2015-03-03T09:23:54Z</time>
      </trkpt>
      <trkpt lat="48.02424" lon="6.96424">
        <ele>885.51</ele>
        <time>2015-03-03T09:24:16Z</time>
      </trkpt>
      <trkpt lat="48.02414" lon="6.96452">
        <ele>887.91</ele>
        <time>2015-03-03T09:24:42Z</time>
      </trkpt>
      <trkpt lat="48.02401" lon="6.96479">
        <ele>891.76</ele>
        <time>2015-03-03T09:25:09Z</time>
      </trkpt>
      <trkpt lat="48.02388" lon="6.96503">
        <ele>893.68</ele>
        <time>2015-03-03T09:25:34Z</time>
      </trkpt>
      <trkpt lat="48.02373" lon="6.96521">
        <ele>895.61</ele>
        <time>2015-03-03T09:25:57Z</time>
      </trkpt>
      <trkpt lat="48.02355" lon="6.96533">
        <ele>898.01</ele>
        <time>2015-03-03T09:26:20Z</time>
      </trkpt>
      <trkpt lat="48.02339" lon="6.96542">
        <ele>900.41</ele>
        <time>2015-03-03T09:26:42Z</time>
      </trkpt>
      <trkpt lat="48.02321" lon="6.96554">
        <ele>902.82</ele>
        <time>2015-03-03T09:27:05Z</time>
      </trkpt>
      <trkpt lat="48.02306" lon="6.96565">
        <ele>905.22</ele>
        <time>2015-03-03T09:27:29Z</time>
      </trkpt>
      <trkpt lat="48.02285" lon="6.96572">
        <ele>909.54</ele>
        <time>2015-03-03T09:27:58Z</time>
      </trkpt>
      <trkpt lat="48.02269" lon="6.96588">
        <ele>911.47</ele>
        <time>2015-03-03T09:28:22Z</time>
      </trkpt>
      <trkpt lat="48.02246" lon="6.96598">
        <ele>914.83</ele>
        <time>2015-03-03T09:28:50Z</time>
      </trkpt>
      <trkpt lat="48.02225" lon="6.96604">
        <ele>917.24</ele>
        <time>2015-03-03T09:29:15Z</time>
      </trkpt>
      <trkpt lat="48.02206" lon="6.96615">
        <ele>920.12</ele>
        <time>2015-03-03T09:29:43Z</time>
      </trkpt>
      <trkpt lat="48.02188" lon="6.96626">
        <ele>922.52</ele>
        <time>2015-03-03T09:30:07Z</time>
      </trkpt>
      <trkpt lat="48.02166" lon="6.96634">
        <ele>925.89</ele>
        <time>2015-03-03T09:30:34Z</time>
      </trkpt>
      <trkpt lat="48.02146" lon="6.96636">
        <ele>928.77</ele>
        <time>2015-03-03T09:31:00Z</time>
      </trkpt>
      <trkpt lat="48.02127" lon="6.96642">
        <ele>931.65</ele>
        <time>2015-03-03T09:31:26Z</time>
      </trkpt>
      <trkpt lat="48.02106" lon="6.96662">
        <ele>934.06</ele>
        <time>2015-03-03T09:31:55Z</time>
      </trkpt>
      <trkpt lat="48.02086" lon="6.96681">
        <ele>937.42</ele>
        <time>2015-03-03T09:32:24Z</time>
      </trkpt>
      <trkpt lat="48.02071" lon="6.96703">
        <ele>939.83</ele>
        <time>2015-03-03T09:32:50Z</time>
      </trkpt>
      <trkpt lat="48.02056" lon="6.96723">
        <ele>942.71</ele>
        <time>2015-03-03T09:33:15Z</time>
      </trkpt>
      <trkpt lat="48.02045" lon="6.96745">
        <ele>945.11</ele>
        <time>2015-03-03T09:33:40Z</time>
      </trkpt>
      <trkpt lat="48.02036" lon="6.96776">
        <ele>948</ele>
        <time>2015-03-03T09:34:07Z</time>
      </trkpt>
      <trkpt lat="48.0203" lon="6.96792">
        <ele>950.4</ele>
        <time>2015-03-03T09:37:13Z</time>
      </trkpt>
      <trkpt lat="48.02022" lon="6.9684">
        <ele>953.28</ele>
        <time>2015-03-03T09:37:42Z</time>
      </trkpt>
      <trkpt lat="48.02015" lon="6.96871">
        <ele>956.65</ele>
        <time>2015-03-03T09:38:10Z</time>
      </trkpt>
      <trkpt lat="48.02006" lon="6.96905">
        <ele>959.53</ele>
        <time>2015-03-03T09:38:40Z</time>
      </trkpt>
      <trkpt lat="48.01999" lon="6.96938">
        <ele>962.42</ele>
        <time>2015-03-03T09:39:09Z</time>
      </trkpt>
      <trkpt lat="48.01995" lon="6.96974">
        <ele>965.3</ele>
        <time>2015-03-03T09:39:37Z</time>
      </trkpt>
      <trkpt lat="48.01994" lon="6.97007">
        <ele>968.18</ele>
        <time>2015-03-03T09:40:05Z</time>
      </trkpt>
      <trkpt lat="48.01993" lon="6.9704">
        <ele>970.59</ele>
        <time>2015-03-03T09:40:31Z</time>
      </trkpt>
      <trkpt lat="48.01992" lon="6.97081">
        <ele>973.47</ele>
        <time>2015-03-03T09:41:05Z</time>
      </trkpt>
      <trkpt lat="48.01992" lon="6.97085">
        <ele>976.36</ele>
        <time>2015-03-03T09:42:29Z</time>
      </trkpt>
      <trkpt lat="48.01982" lon="6.97127">
        <ele>978.76</ele>
        <time>2015-03-03T09:44:41Z</time>
      </trkpt>
      <trkpt lat="48.01978" lon="6.97172">
        <ele>982.12</ele>
        <time>2015-03-03T09:45:11Z</time>
      </trkpt>
      <trkpt lat="48.01974" lon="6.97202">
        <ele>984.53</ele>
        <time>2015-03-03T09:45:36Z</time>
      </trkpt>
      <trkpt lat="48.01967" lon="6.9723">
        <ele>987.41</ele>
        <time>2015-03-03T09:46:02Z</time>
      </trkpt>
      <trkpt lat="48.01968" lon="6.97269">
        <ele>988.85</ele>
        <time>2015-03-03T09:46:25Z</time>
      </trkpt>
      <trkpt lat="48.01964" lon="6.97311">
        <ele>991.26</ele>
        <time>2015-03-03T09:47:01Z</time>
      </trkpt>
      <trkpt lat="48.01961" lon="6.97347">
        <ele>993.18</ele>
        <time>2015-03-03T09:47:32Z</time>
      </trkpt>
      <trkpt lat="48.01952" lon="6.97378">
        <ele>994.14</ele>
        <time>2015-03-03T09:47:59Z</time>
      </trkpt>
      <trkpt lat="48.01943" lon="6.97414">
        <ele>996.06</ele>
        <time>2015-03-03T09:48:31Z</time>
      </trkpt>
      <trkpt lat="48.01927" lon="6.97442">
        <ele>997.51</ele>
        <time>2015-03-03T09:48:53Z</time>
      </trkpt>
      <trkpt lat="48.01914" lon="6.97462">
        <ele>998.47</ele>
        <time>2015-03-03T09:49:13Z</time>
      </trkpt>
      <trkpt lat="48.01906" lon="6.9749">
        <ele>998.95</ele>
        <time>2015-03-03T09:49:34Z</time>
      </trkpt>
      <trkpt lat="48.01894" lon="6.97514">
        <ele>999.43</ele>
        <time>2015-03-03T09:49:54Z</time>
      </trkpt>
      <trkpt lat="48.0188" lon="6.97527">
        <ele>999.91</ele>
        <time>2015-03-03T09:50:24Z</time>
      </trkpt>
      <trkpt lat="48.01871" lon="6.9755">
        <ele>999.91</ele>
        <time>2015-03-03T09:51:08Z</time>
      </trkpt>
      <trkpt lat="48.01869" lon="6.97572">
        <ele>999.91</ele>
        <time>2015-03-03T09:52:23Z</time>
      </trkpt>
      <trkpt lat="48.0187" lon="6.97604">
        <ele>999.43</ele>
        <time>2015-03-03T09:52:46Z</time>
      </trkpt>
      <trkpt lat="48.01876" lon="6.97637">
        <ele>999.91</ele>
        <time>2015-03-03T09:53:08Z</time>
      </trkpt>
      <trkpt lat="48.01878" lon="6.97671">
        <ele>999.43</ele>
        <time>2015-03-03T09:53:37Z</time>
      </trkpt>
      <trkpt lat="48.01871" lon="6.97708">
        <ele>1000.39</ele>
        <time>2015-03-03T09:54:03Z</time>
      </trkpt>
      <trkpt lat="48.01857" lon="6.9774">
        <ele>1000.39</ele>
        <time>2015-03-03T09:54:27Z</time>
      </trkpt>
      <trkpt lat="48.01839" lon="6.97765">
        <ele>1000.39</ele>
        <time>2015-03-03T09:54:49Z</time>
      </trkpt>
      <trkpt lat="48.01822" lon="6.97789">
        <ele>999.91</ele>
        <time>2015-03-03T09:55:11Z</time>
      </trkpt>
      <trkpt lat="48.01809" lon="6.97813">
        <ele>999.91</ele>
        <time>2015-03-03T09:55:33Z</time>
      </trkpt>
      <trkpt lat="48.01802" lon="6.97832">
        <ele>999.91</ele>
        <time>2015-03-03T09:56:32Z</time>
      </trkpt>
      <trkpt lat="48.018" lon="6.97832">
        <ele>999.91</ele>
        <time>2015-03-03T10:00:59Z</time>
      </trkpt>
      <trkpt lat="48.0182" lon="6.97833">
        <ele>1000.87</ele>
        <time>2015-03-03T10:01:20Z</time>
      </trkpt>
      <trkpt lat="48.018" lon="6.97835">
        <ele>1000.87</ele>
        <time>2015-03-03T10:01:58Z</time>
      </trkpt>
      <trkpt lat="48.01794" lon="6.97833">
        <ele>999.43</ele>
        <time>2015-03-03T10:03:54Z</time>
      </trkpt>
      <trkpt lat="48.01794" lon="6.9786">
        <ele>998.95</ele>
        <time>2015-03-03T10:10:03Z</time>
      </trkpt>
      <trkpt lat="48.01785" lon="6.97886">
        <ele>998.47</ele>
        <time>2015-03-03T10:10:25Z</time>
      </trkpt>
      <trkpt lat="48.01775" lon="6.9791">
        <ele>998.47</ele>
        <time>2015-03-03T10:10:44Z</time>
      </trkpt>
      <trkpt lat="48.01763" lon="6.97932">
        <ele>999.91</ele>
        <time>2015-03-03T10:11:07Z</time>
      </trkpt>
      <trkpt lat="48.01745" lon="6.97947">
        <ele>999.91</ele>
        <time>2015-03-03T10:11:31Z</time>
      </trkpt>
      <trkpt lat="48.0173" lon="6.97961">
        <ele>999.91</ele>
        <time>2015-03-03T10:11:52Z</time>
      </trkpt>
      <trkpt lat="48.01712" lon="6.9796">
        <ele>1000.39</ele>
        <time>2015-03-03T10:12:13Z</time>
      </trkpt>
      <trkpt lat="48.01688" lon="6.97957">
        <ele>1000.87</ele>
        <time>2015-03-03T10:12:36Z</time>
      </trkpt>
      <trkpt lat="48.01674" lon="6.97943">
        <ele>1001.35</ele>
        <time>2015-03-03T10:13:17Z</time>
      </trkpt>
      <trkpt lat="48.01654" lon="6.97931">
        <ele>1002.31</ele>
        <time>2015-03-03T10:13:36Z</time>
      </trkpt>
      <trkpt lat="48.0164" lon="6.97954">
        <ele>1003.75</ele>
        <time>2015-03-03T10:14:02Z</time>
      </trkpt>
      <trkpt lat="48.01622" lon="6.97963">
        <ele>1006.64</ele>
        <time>2015-03-03T10:14:30Z</time>
      </trkpt>
      <trkpt lat="48.01603" lon="6.97978">
        <ele>1013.85</ele>
        <time>2015-03-03T10:15:28Z</time>
      </trkpt>
      <trkpt lat="48.01576" lon="6.97963">
        <ele>1013.37</ele>
        <time>2015-03-03T10:15:55Z</time>
      </trkpt>
      <trkpt lat="48.01553" lon="6.97955">
        <ele>1016.25</ele>
        <time>2015-03-03T10:16:31Z</time>
      </trkpt>
      <trkpt lat="48.01524" lon="6.97943">
        <ele>1022.02</ele>
        <time>2015-03-03T10:17:15Z</time>
      </trkpt>
      <trkpt lat="48.01503" lon="6.97931">
        <ele>1027.79</ele>
        <time>2015-03-03T10:17:58Z</time>
      </trkpt>
      <trkpt lat="48.01474" lon="6.97929">
        <ele>1032.11</ele>
        <time>2015-03-03T10:18:44Z</time>
      </trkpt>
      <trkpt lat="48.01464" lon="6.97949">
        <ele>1035</ele>
        <time>2015-03-03T10:21:51Z</time>
      </trkpt>
      <trkpt lat="48.01441" lon="6.97914">
        <ele>1038.84</ele>
        <time>2015-03-03T10:22:28Z</time>
      </trkpt>
      <trkpt lat="48.01414" lon="6.97909">
        <ele>1044.61</ele>
        <time>2015-03-03T10:23:10Z</time>
      </trkpt>
      <trkpt lat="48.01399" lon="6.97881">
        <ele>1049.9</ele>
        <time>2015-03-03T10:23:55Z</time>
      </trkpt>
      <trkpt lat="48.01382" lon="6.97862">
        <ele>1055.18</ele>
        <time>2015-03-03T10:24:41Z</time>
      </trkpt>
      <trkpt lat="48.01358" lon="6.97837">
        <ele>1059.03</ele>
        <time>2015-03-03T10:25:21Z</time>
      </trkpt>
      <trkpt lat="48.01335" lon="6.97819">
        <ele>1062.39</ele>
        <time>2015-03-03T10:25:54Z</time>
      </trkpt>
      <trkpt lat="48.01317" lon="6.97797">
        <ele>1065.28</ele>
        <time>2015-03-03T10:26:32Z</time>
      </trkpt>
      <trkpt lat="48.01291" lon="6.9777">
        <ele>1069.6</ele>
        <time>2015-03-03T10:27:16Z</time>
      </trkpt>
      <trkpt lat="48.01271" lon="6.97752">
        <ele>1074.41</ele>
        <time>2015-03-03T10:28:02Z</time>
      </trkpt>
      <trkpt lat="48.01257" lon="6.97746">
        <ele>1081.14</ele>
        <time>2015-03-03T10:28:58Z</time>
      </trkpt>
      <trkpt lat="48.01269" lon="6.97721">
        <ele>1081.14</ele>
        <time>2015-03-03T10:30:15Z</time>
      </trkpt>
      <trkpt lat="48.01266" lon="6.9769">
        <ele>1081.62</ele>
        <time>2015-03-03T10:32:10Z</time>
      </trkpt>
      <trkpt lat="48.01268" lon="6.97666">
        <ele>1082.1</ele>
        <time>2015-03-03T10:33:24Z</time>
      </trkpt>
      <trkpt lat="48.01278" lon="6.9764">
        <ele>1082.58</ele>
        <time>2015-03-03T10:33:47Z</time>
      </trkpt>
      <trkpt lat="48.01288" lon="6.97616">
        <ele>1082.58</ele>
        <time>2015-03-03T10:34:12Z</time>
      </trkpt>
      <trkpt lat="48.01302" lon="6.9759">
        <ele>1083.06</ele>
        <time>2015-03-03T10:34:37Z</time>
      </trkpt>
      <trkpt lat="48.01319" lon="6.97559">
        <ele>1084.02</ele>
        <time>2015-03-03T10:35:06Z</time>
      </trkpt>
      <trkpt lat="48.01335" lon="6.97545">
        <ele>1084.5</ele>
        <time>2015-03-03T10:35:33Z</time>
      </trkpt>
      <trkpt lat="48.01362" lon="6.97535">
        <ele>1084.99</ele>
        <time>2015-03-03T10:36:08Z</time>
      </trkpt>
      <trkpt lat="48.01379" lon="6.97507">
        <ele>1086.43</ele>
        <time>2015-03-03T10:36:40Z</time>
      </trkpt>
      <trkpt lat="48.01397" lon="6.97479">
        <ele>1086.91</ele>
        <time>2015-03-03T10:37:09Z</time>
      </trkpt>
      <trkpt lat="48.01416" lon="6.97456">
        <ele>1086.91</ele>
        <time>2015-03-03T10:37:37Z</time>
      </trkpt>
      <trkpt lat="48.01434" lon="6.97452">
        <ele>1087.87</ele>
        <time>2015-03-03T10:38:04Z</time>
      </trkpt>
      <trkpt lat="48.0145" lon="6.97431">
        <ele>1088.35</ele>
        <time>2015-03-03T10:38:36Z</time>
      </trkpt>
      <trkpt lat="48.01468" lon="6.974">
        <ele>1089.31</ele>
        <time>2015-03-03T10:39:05Z</time>
      </trkpt>
      <trkpt lat="48.01486" lon="6.9737">
        <ele>1090.27</ele>
        <time>2015-03-03T10:39:39Z</time>
      </trkpt>
      <trkpt lat="48.01501" lon="6.97354">
        <ele>1092.2</ele>
        <time>2015-03-03T10:40:05Z</time>
      </trkpt>
      <trkpt lat="48.01518" lon="6.97331">
        <ele>1094.12</ele>
        <time>2015-03-03T10:40:38Z</time>
      </trkpt>
      <trkpt lat="48.01522" lon="6.97298">
        <ele>1095.56</ele>
        <time>2015-03-03T10:41:05Z</time>
      </trkpt>
      <trkpt lat="48.0153" lon="6.97272">
        <ele>1097</ele>
        <time>2015-03-03T10:41:34Z</time>
      </trkpt>
      <trkpt lat="48.01551" lon="6.97252">
        <ele>1098.44</ele>
        <time>2015-03-03T10:42:09Z</time>
      </trkpt>
      <trkpt lat="48.01568" lon="6.97236">
        <ele>1100.85</ele>
        <time>2015-03-03T10:42:42Z</time>
      </trkpt>
      <trkpt lat="48.01592" lon="6.97225">
        <ele>1104.69</ele>
        <time>2015-03-03T10:43:47Z</time>
      </trkpt>
      <trkpt lat="48.0162" lon="6.97195">
        <ele>1106.61</ele>
        <time>2015-03-03T10:44:28Z</time>
      </trkpt>
      <trkpt lat="48.01625" lon="6.97157">
        <ele>1108.06</ele>
        <time>2015-03-03T10:44:55Z</time>
      </trkpt>
      <trkpt lat="48.01613" lon="6.97124">
        <ele>1111.42</ele>
        <time>2015-03-03T10:45:30Z</time>
      </trkpt>
      <trkpt lat="48.01593" lon="6.97088">
        <ele>1114.79</ele>
        <time>2015-03-03T10:46:28Z</time>
      </trkpt>
      <trkpt lat="48.01579" lon="6.97053">
        <ele>1116.71</ele>
        <time>2015-03-03T10:47:06Z</time>
      </trkpt>
      <trkpt lat="48.01564" lon="6.97025">
        <ele>1119.11</ele>
        <time>2015-03-03T10:47:38Z</time>
      </trkpt>
      <trkpt lat="48.01549" lon="6.96998">
        <ele>1121.52</ele>
        <time>2015-03-03T10:48:11Z</time>
      </trkpt>
      <trkpt lat="48.01532" lon="6.96974">
        <ele>1123.44</ele>
        <time>2015-03-03T10:48:40Z</time>
      </trkpt>
      <trkpt lat="48.01519" lon="6.96955">
        <ele>1124.4</ele>
        <time>2015-03-03T10:49:06Z</time>
      </trkpt>
      <trkpt lat="48.01506" lon="6.96931">
        <ele>1126.32</ele>
        <time>2015-03-03T10:49:32Z</time>
      </trkpt>
      <trkpt lat="48.01489" lon="6.96908">
        <ele>1128.24</ele>
        <time>2015-03-03T10:50:01Z</time>
      </trkpt>
      <trkpt lat="48.01471" lon="6.96889">
        <ele>1129.69</ele>
        <time>2015-03-03T10:50:26Z</time>
      </trkpt>
      <trkpt lat="48.01451" lon="6.9687">
        <ele>1130.65</ele>
        <time>2015-03-03T10:50:53Z</time>
      </trkpt>
      <trkpt lat="48.01432" lon="6.96854">
        <ele>1131.61</ele>
        <time>2015-03-03T10:51:22Z</time>
      </trkpt>
      <trkpt lat="48.01415" lon="6.9684">
        <ele>1134.01</ele>
        <time>2015-03-03T10:51:47Z</time>
      </trkpt>
      <trkpt lat="48.01393" lon="6.9683">
        <ele>1136.42</ele>
        <time>2015-03-03T10:52:15Z</time>
      </trkpt>
      <trkpt lat="48.01374" lon="6.96823">
        <ele>1137.86</ele>
        <time>2015-03-03T10:52:44Z</time>
      </trkpt>
      <trkpt lat="48.01376" lon="6.96806">
        <ele>1135.94</ele>
        <time>2015-03-03T10:54:09Z</time>
      </trkpt>
      <trkpt lat="48.01367" lon="6.96775">
        <ele>1133.53</ele>
        <time>2015-03-03T10:54:29Z</time>
      </trkpt>
      <trkpt lat="48.01371" lon="6.96746">
        <ele>1130.65</ele>
        <time>2015-03-03T10:54:53Z</time>
      </trkpt>
      <trkpt lat="48.0137" lon="6.96716">
        <ele>1127.76</ele>
        <time>2015-03-03T10:55:16Z</time>
      </trkpt>
      <trkpt lat="48.01372" lon="6.96683">
        <ele>1124.88</ele>
        <time>2015-03-03T10:55:39Z</time>
      </trkpt>
      <trkpt lat="48.01377" lon="6.96648">
        <ele>1121.52</ele>
        <time>2015-03-03T10:56:09Z</time>
      </trkpt>
      <trkpt lat="48.01383" lon="6.96606">
        <ele>1119.59</ele>
        <time>2015-03-03T10:56:34Z</time>
      </trkpt>
      <trkpt lat="48.01379" lon="6.96569">
        <ele>1119.11</ele>
        <time>2015-03-03T10:57:01Z</time>
      </trkpt>
      <trkpt lat="48.0138" lon="6.96536">
        <ele>1118.15</ele>
        <time>2015-03-03T10:57:22Z</time>
      </trkpt>
      <trkpt lat="48.01379" lon="6.96506">
        <ele>1116.23</ele>
        <time>2015-03-03T10:57:44Z</time>
      </trkpt>
      <trkpt lat="48.01383" lon="6.9647">
        <ele>1114.31</ele>
        <time>2015-03-03T10:58:08Z</time>
      </trkpt>
      <trkpt lat="48.01386" lon="6.96432">
        <ele>1113.82</ele>
        <time>2015-03-03T10:58:33Z</time>
      </trkpt>
      <trkpt lat="48.01395" lon="6.96395">
        <ele>1112.86</ele>
        <time>2015-03-03T10:58:58Z</time>
      </trkpt>
      <trkpt lat="48.01409" lon="6.96365">
        <ele>1110.46</ele>
        <time>2015-03-03T10:59:28Z</time>
      </trkpt>
      <trkpt lat="48.01419" lon="6.96331">
        <ele>1108.54</ele>
        <time>2015-03-03T10:59:56Z</time>
      </trkpt>
      <trkpt lat="48.01423" lon="6.96299">
        <ele>1106.13</ele>
        <time>2015-03-03T11:00:18Z</time>
      </trkpt>
      <trkpt lat="48.01428" lon="6.96263">
        <ele>1104.69</ele>
        <time>2015-03-03T11:00:45Z</time>
      </trkpt>
      <trkpt lat="48.01436" lon="6.96223">
        <ele>1102.29</ele>
        <time>2015-03-03T11:01:19Z</time>
      </trkpt>
      <trkpt lat="48.01455" lon="6.96198">
        <ele>1099.4</ele>
        <time>2015-03-03T11:01:42Z</time>
      </trkpt>
      <trkpt lat="48.01481" lon="6.96163">
        <ele>1096.04</ele>
        <time>2015-03-03T11:02:17Z</time>
      </trkpt>
      <trkpt lat="48.01503" lon="6.96123">
        <ele>1092.2</ele>
        <time>2015-03-03T11:02:52Z</time>
      </trkpt>
      <trkpt lat="48.0152" lon="6.96091">
        <ele>1087.87</ele>
        <time>2015-03-03T11:03:20Z</time>
      </trkpt>
      <trkpt lat="48.01535" lon="6.96064">
        <ele>1083.06</ele>
        <time>2015-03-03T11:03:49Z</time>
      </trkpt>
      <trkpt lat="48.01549" lon="6.96033">
        <ele>1078.74</ele>
        <time>2015-03-03T11:04:16Z</time>
      </trkpt>
      <trkpt lat="48.01553" lon="6.96003">
        <ele>1075.85</ele>
        <time>2015-03-03T11:04:42Z</time>
      </trkpt>
      <trkpt lat="48.01557" lon="6.95963">
        <ele>1073.93</ele>
        <time>2015-03-03T11:05:07Z</time>
      </trkpt>
      <trkpt lat="48.01557" lon="6.95923">
        <ele>1072.49</ele>
        <time>2015-03-03T11:05:32Z</time>
      </trkpt>
      <trkpt lat="48.01554" lon="6.95889">
        <ele>1070.57</ele>
        <time>2015-03-03T11:05:53Z</time>
      </trkpt>
      <trkpt lat="48.01556" lon="6.95854">
        <ele>1068.16</ele>
        <time>2015-03-03T11:06:17Z</time>
      </trkpt>
      <trkpt lat="48.0156" lon="6.95812">
        <ele>1064.8</ele>
        <time>2015-03-03T11:06:44Z</time>
      </trkpt>
      <trkpt lat="48.01559" lon="6.95769">
        <ele>1060.47</ele>
        <time>2015-03-03T11:07:14Z</time>
      </trkpt>
      <trkpt lat="48.01549" lon="6.95727">
        <ele>1058.55</ele>
        <time>2015-03-03T11:07:37Z</time>
      </trkpt>
      <trkpt lat="48.01539" lon="6.95693">
        <ele>1057.11</ele>
        <time>2015-03-03T11:07:59Z</time>
      </trkpt>
      <trkpt lat="48.01531" lon="6.95656">
        <ele>1054.22</ele>
        <time>2015-03-03T11:08:28Z</time>
      </trkpt>
      <trkpt lat="48.01514" lon="6.95622">
        <ele>1049.9</ele>
        <time>2015-03-03T11:08:54Z</time>
      </trkpt>
      <trkpt lat="48.01503" lon="6.95587">
        <ele>1047.01</ele>
        <time>2015-03-03T11:09:17Z</time>
      </trkpt>
      <trkpt lat="48.0149" lon="6.95552">
        <ele>1044.61</ele>
        <time>2015-03-03T11:09:43Z</time>
      </trkpt>
      <trkpt lat="48.01468" lon="6.95528">
        <ele>1042.21</ele>
        <time>2015-03-03T11:10:22Z</time>
      </trkpt>
      <trkpt lat="48.0145" lon="6.95513">
        <ele>1038.84</ele>
        <time>2015-03-03T11:10:46Z</time>
      </trkpt>
      <trkpt lat="48.01429" lon="6.95499">
        <ele>1035.48</ele>
        <time>2015-03-03T11:11:09Z</time>
      </trkpt>
      <trkpt lat="48.01409" lon="6.95485">
        <ele>1032.59</ele>
        <time>2015-03-03T11:11:28Z</time>
      </trkpt>
      <trkpt lat="48.01388" lon="6.95482">
        <ele>1030.19</ele>
        <time>2015-03-03T11:11:48Z</time>
      </trkpt>
      <trkpt lat="48.01367" lon="6.95481">
        <ele>1027.31</ele>
        <time>2015-03-03T11:12:08Z</time>
      </trkpt>
      <trkpt lat="48.01342" lon="6.95479">
        <ele>1022.98</ele>
        <time>2015-03-03T11:12:32Z</time>
      </trkpt>
      <trkpt lat="48.01318" lon="6.95479">
        <ele>1020.58</ele>
        <time>2015-03-03T11:13:01Z</time>
      </trkpt>
      <trkpt lat="48.01298" lon="6.95486">
        <ele>1018.65</ele>
        <time>2015-03-03T11:13:22Z</time>
      </trkpt>
      <trkpt lat="48.01276" lon="6.95488">
        <ele>1016.25</ele>
        <time>2015-03-03T11:13:44Z</time>
      </trkpt>
      <trkpt lat="48.01256" lon="6.95492">
        <ele>1014.33</ele>
        <time>2015-03-03T11:14:07Z</time>
      </trkpt>
      <trkpt lat="48.01232" lon="6.95498">
        <ele>1011.44</ele>
        <time>2015-03-03T11:14:27Z</time>
      </trkpt>
      <trkpt lat="48.0121" lon="6.95512">
        <ele>1010</ele>
        <time>2015-03-03T11:14:50Z</time>
      </trkpt>
      <trkpt lat="48.01191" lon="6.9553">
        <ele>1007.6</ele>
        <time>2015-03-03T11:15:13Z</time>
      </trkpt>
      <trkpt lat="48.01173" lon="6.95549">
        <ele>1003.75</ele>
        <time>2015-03-03T11:15:31Z</time>
      </trkpt>
      <trkpt lat="48.01155" lon="6.95565">
        <ele>1000.87</ele>
        <time>2015-03-03T11:15:49Z</time>
      </trkpt>
      <trkpt lat="48.01139" lon="6.95583">
        <ele>999.43</ele>
        <time>2015-03-03T11:16:08Z</time>
      </trkpt>
      <trkpt lat="48.01121" lon="6.95599">
        <ele>996.54</ele>
        <time>2015-03-03T11:16:32Z</time>
      </trkpt>
      <trkpt lat="48.01104" lon="6.95613">
        <ele>993.18</ele>
        <time>2015-03-03T11:16:53Z</time>
      </trkpt>
      <trkpt lat="48.01085" lon="6.95622">
        <ele>989.33</ele>
        <time>2015-03-03T11:17:15Z</time>
      </trkpt>
      <trkpt lat="48.01058" lon="6.95643">
        <ele>984.53</ele>
        <time>2015-03-03T11:17:51Z</time>
      </trkpt>
      <trkpt lat="48.01046" lon="6.95645">
        <ele>980.2</ele>
        <time>2015-03-03T11:18:32Z</time>
      </trkpt>
      <trkpt lat="48.01054" lon="6.95652">
        <ele>980.2</ele>
        <time>2015-03-03T11:19:48Z</time>
      </trkpt>
      <trkpt lat="48.01043" lon="6.95654">
        <ele>980.2</ele>
        <time>2015-03-03T11:21:15Z</time>
      </trkpt>
      <trkpt lat="48.0105" lon="6.95654">
        <ele>980.2</ele>
        <time>2015-03-03T11:22:39Z</time>
      </trkpt>
      <trkpt lat="48.01049" lon="6.95658">
        <ele>980.2</ele>
        <time>2015-03-03T11:24:37Z</time>
      </trkpt>
      <trkpt lat="48.01046" lon="6.9565">
        <ele>979.72</ele>
        <time>2015-03-03T11:27:53Z</time>
      </trkpt>
      <trkpt lat="48.01046" lon="6.95656">
        <ele>982.12</ele>
        <time>2015-03-03T11:38:48Z</time>
      </trkpt>
      <trkpt lat="48.01044" lon="6.95653">
        <ele>983.09</ele>
        <time>2015-03-03T12:03:58Z</time>
      </trkpt>
      <trkpt lat="48.01048" lon="6.95655">
        <ele>982.6</ele>
        <time>2015-03-03T12:06:14Z</time>
      </trkpt>
      <trkpt lat="48.0105" lon="6.95653">
        <ele>981.16</ele>
        <time>2015-03-03T12:08:38Z</time>
      </trkpt>
      <trkpt lat="48.01041" lon="6.95651">
        <ele>984.53</ele>
        <time>2015-03-03T12:19:47Z</time>
      </trkpt>
      <trkpt lat="48.01038" lon="6.95659">
        <ele>983.09</ele>
        <time>2015-03-03T12:24:45Z</time>
      </trkpt>
      <trkpt lat="48.01017" lon="6.95649">
        <ele>980.2</ele>
        <time>2015-03-03T12:25:22Z</time>
      </trkpt>
      <trkpt lat="48.01004" lon="6.95627">
        <ele>980.2</ele>
        <time>2015-03-03T12:26:22Z</time>
      </trkpt>
      <trkpt lat="48.01001" lon="6.95604">
        <ele>978.76</ele>
        <time>2015-03-03T12:27:03Z</time>
      </trkpt>
      <trkpt lat="48.01001" lon="6.95569">
        <ele>977.8</ele>
        <time>2015-03-03T12:27:27Z</time>
      </trkpt>
      <trkpt lat="48.00989" lon="6.95526">
        <ele>975.88</ele>
        <time>2015-03-03T12:27:53Z</time>
      </trkpt>
      <trkpt lat="48.00993" lon="6.9549">
        <ele>974.43</ele>
        <time>2015-03-03T12:28:17Z</time>
      </trkpt>
      <trkpt lat="48.00993" lon="6.95456">
        <ele>972.51</ele>
        <time>2015-03-03T12:28:39Z</time>
      </trkpt>
      <trkpt lat="48.00985" lon="6.95427">
        <ele>970.11</ele>
        <time>2015-03-03T12:29:04Z</time>
      </trkpt>
      <trkpt lat="48.0098" lon="6.95463">
        <ele>974.43</ele>
        <time>2015-03-03T12:29:30Z</time>
      </trkpt>
      <trkpt lat="48.0098" lon="6.95496">
        <ele>977.8</ele>
        <time>2015-03-03T12:30:01Z</time>
      </trkpt>
      <trkpt lat="48.0097" lon="6.95527">
        <ele>979.72</ele>
        <time>2015-03-03T12:30:32Z</time>
      </trkpt>
      <trkpt lat="48.00958" lon="6.95565">
        <ele>982.6</ele>
        <time>2015-03-03T12:31:09Z</time>
      </trkpt>
      <trkpt lat="48.00952" lon="6.95597">
        <ele>985.01</ele>
        <time>2015-03-03T12:31:40Z</time>
      </trkpt>
      <trkpt lat="48.00945" lon="6.95631">
        <ele>987.89</ele>
        <time>2015-03-03T12:32:11Z</time>
      </trkpt>
      <trkpt lat="48.0094" lon="6.95667">
        <ele>990.3</ele>
        <time>2015-03-03T12:32:46Z</time>
      </trkpt>
      <trkpt lat="48.00934" lon="6.95699">
        <ele>992.22</ele>
        <time>2015-03-03T12:33:18Z</time>
      </trkpt>
      <trkpt lat="48.00921" lon="6.95731">
        <ele>994.62</ele>
        <time>2015-03-03T12:33:52Z</time>
      </trkpt>
      <trkpt lat="48.00908" lon="6.95763">
        <ele>997.02</ele>
        <time>2015-03-03T12:34:27Z</time>
      </trkpt>
      <trkpt lat="48.00891" lon="6.95783">
        <ele>998.47</ele>
        <time>2015-03-03T12:35:03Z</time>
      </trkpt>
      <trkpt lat="48.00878" lon="6.95807">
        <ele>999.91</ele>
        <time>2015-03-03T12:35:32Z</time>
      </trkpt>
      <trkpt lat="48.00861" lon="6.95841">
        <ele>1002.31</ele>
        <time>2015-03-03T12:36:07Z</time>
      </trkpt>
      <trkpt lat="48.00839" lon="6.95874">
        <ele>1004.23</ele>
        <time>2015-03-03T12:36:43Z</time>
      </trkpt>
      <trkpt lat="48.00824" lon="6.95903">
        <ele>1007.12</ele>
        <time>2015-03-03T12:37:16Z</time>
      </trkpt>
      <trkpt lat="48.00804" lon="6.95918">
        <ele>1008.08</ele>
        <time>2015-03-03T12:37:45Z</time>
      </trkpt>
      <trkpt lat="48.0079" lon="6.95936">
        <ele>1010</ele>
        <time>2015-03-03T12:38:14Z</time>
      </trkpt>
      <trkpt lat="48.0077" lon="6.95954">
        <ele>1011.44</ele>
        <time>2015-03-03T12:38:43Z</time>
      </trkpt>
      <trkpt lat="48.00751" lon="6.95971">
        <ele>1013.37</ele>
        <time>2015-03-03T12:39:14Z</time>
      </trkpt>
      <trkpt lat="48.00731" lon="6.95987">
        <ele>1014.81</ele>
        <time>2015-03-03T12:39:45Z</time>
      </trkpt>
      <trkpt lat="48.00712" lon="6.96009">
        <ele>1017.21</ele>
        <time>2015-03-03T12:40:16Z</time>
      </trkpt>
      <trkpt lat="48.00683" lon="6.96006">
        <ele>1019.62</ele>
        <time>2015-03-03T12:40:53Z</time>
      </trkpt>
      <trkpt lat="48.00659" lon="6.96009">
        <ele>1021.54</ele>
        <time>2015-03-03T12:41:35Z</time>
      </trkpt>
      <trkpt lat="48.0062" lon="6.96015">
        <ele>1024.42</ele>
        <time>2015-03-03T12:42:17Z</time>
      </trkpt>
      <trkpt lat="48.00597" lon="6.96028">
        <ele>1027.31</ele>
        <time>2015-03-03T12:42:49Z</time>
      </trkpt>
      <trkpt lat="48.00577" lon="6.96042">
        <ele>1029.23</ele>
        <time>2015-03-03T12:43:27Z</time>
      </trkpt>
      <trkpt lat="48.00549" lon="6.96042">
        <ele>1029.71</ele>
        <time>2015-03-03T12:43:58Z</time>
      </trkpt>
      <trkpt lat="48.00517" lon="6.96041">
        <ele>1029.71</ele>
        <time>2015-03-03T12:44:33Z</time>
      </trkpt>
      <trkpt lat="48.00492" lon="6.96034">
        <ele>1028.27</ele>
        <time>2015-03-03T12:45:12Z</time>
      </trkpt>
      <trkpt lat="48.00463" lon="6.96053">
        <ele>1027.31</ele>
        <time>2015-03-03T12:45:38Z</time>
      </trkpt>
      <trkpt lat="48.00446" lon="6.96087">
        <ele>1026.34</ele>
        <time>2015-03-03T12:46:07Z</time>
      </trkpt>
      <trkpt lat="48.00424" lon="6.96099">
        <ele>1025.86</ele>
        <time>2015-03-03T12:46:31Z</time>
      </trkpt>
      <trkpt lat="48.00403" lon="6.96115">
        <ele>1024.9</ele>
        <time>2015-03-03T12:46:55Z</time>
      </trkpt>
      <trkpt lat="48.00391" lon="6.96134">
        <ele>1023.94</ele>
        <time>2015-03-03T12:47:19Z</time>
      </trkpt>
      <trkpt lat="48.00385" lon="6.96166">
        <ele>1022.5</ele>
        <time>2015-03-03T12:47:39Z</time>
      </trkpt>
      <trkpt lat="48.00373" lon="6.96198">
        <ele>1021.54</ele>
        <time>2015-03-03T12:48:01Z</time>
      </trkpt>
      <trkpt lat="48.00355" lon="6.96214">
        <ele>1021.06</ele>
        <time>2015-03-03T12:48:22Z</time>
      </trkpt>
      <trkpt lat="48.00345" lon="6.96235">
        <ele>1019.62</ele>
        <time>2015-03-03T12:48:51Z</time>
      </trkpt>
      <trkpt lat="48.00333" lon="6.96275">
        <ele>1019.13</ele>
        <time>2015-03-03T12:49:12Z</time>
      </trkpt>
      <trkpt lat="48.00329" lon="6.96313">
        <ele>1017.69</ele>
        <time>2015-03-03T12:49:42Z</time>
      </trkpt>
      <trkpt lat="48.00326" lon="6.96356">
        <ele>1016.73</ele>
        <time>2015-03-03T12:50:12Z</time>
      </trkpt>
      <trkpt lat="48.00337" lon="6.96402">
        <ele>1015.77</ele>
        <time>2015-03-03T12:50:48Z</time>
      </trkpt>
      <trkpt lat="48.00347" lon="6.96434">
        <ele>1014.33</ele>
        <time>2015-03-03T12:51:15Z</time>
      </trkpt>
      <trkpt lat="48.00362" lon="6.96465">
        <ele>1013.37</ele>
        <time>2015-03-03T12:51:40Z</time>
      </trkpt>
      <trkpt lat="48.00374" lon="6.96503">
        <ele>1012.41</ele>
        <time>2015-03-03T12:52:08Z</time>
      </trkpt>
      <trkpt lat="48.00392" lon="6.96533">
        <ele>1010.96</ele>
        <time>2015-03-03T12:52:39Z</time>
      </trkpt>
      <trkpt lat="48.00411" lon="6.96556">
        <ele>1010</ele>
        <time>2015-03-03T12:53:09Z</time>
      </trkpt>
      <trkpt lat="48.00435" lon="6.96584">
        <ele>1008.08</ele>
        <time>2015-03-03T12:53:41Z</time>
      </trkpt>
      <trkpt lat="48.00457" lon="6.96607">
        <ele>1006.64</ele>
        <time>2015-03-03T12:54:12Z</time>
      </trkpt>
      <trkpt lat="48.00481" lon="6.96623">
        <ele>1006.16</ele>
        <time>2015-03-03T12:54:44Z</time>
      </trkpt>
      <trkpt lat="48.00503" lon="6.96631">
        <ele>1007.6</ele>
        <time>2015-03-03T12:57:18Z</time>
      </trkpt>
      <trkpt lat="48.00542" lon="6.96608">
        <ele>1006.64</ele>
        <time>2015-03-03T12:58:06Z</time>
      </trkpt>
      <trkpt lat="48.00568" lon="6.96591">
        <ele>1005.68</ele>
        <time>2015-03-03T12:58:29Z</time>
      </trkpt>
      <trkpt lat="48.00597" lon="6.96563">
        <ele>1004.72</ele>
        <time>2015-03-03T12:58:55Z</time>
      </trkpt>
      <trkpt lat="48.00614" lon="6.96541">
        <ele>1005.2</ele>
        <time>2015-03-03T12:59:16Z</time>
      </trkpt>
      <trkpt lat="48.00629" lon="6.96519">
        <ele>1004.72</ele>
        <time>2015-03-03T12:59:36Z</time>
      </trkpt>
      <trkpt lat="48.00639" lon="6.96491">
        <ele>1004.72</ele>
        <time>2015-03-03T12:59:57Z</time>
      </trkpt>
      <trkpt lat="48.00659" lon="6.9646">
        <ele>1004.23</ele>
        <time>2015-03-03T13:00:23Z</time>
      </trkpt>
      <trkpt lat="48.00676" lon="6.9643">
        <ele>1004.23</ele>
        <time>2015-03-03T13:00:50Z</time>
      </trkpt>
      <trkpt lat="48.00695" lon="6.96403">
        <ele>1003.27</ele>
        <time>2015-03-03T13:01:17Z</time>
      </trkpt>
      <trkpt lat="48.00718" lon="6.96386">
        <ele>1003.27</ele>
        <time>2015-03-03T13:01:44Z</time>
      </trkpt>
      <trkpt lat="48.00745" lon="6.96374">
        <ele>1003.27</ele>
        <time>2015-03-03T13:02:13Z</time>
      </trkpt>
      <trkpt lat="48.00755" lon="6.96361">
        <ele>1003.75</ele>
        <time>2015-03-03T13:05:13Z</time>
      </trkpt>
      <trkpt lat="48.0077" lon="6.96339">
        <ele>1003.75</ele>
        <time>2015-03-03T13:06:54Z</time>
      </trkpt>
      <trkpt lat="48.00786" lon="6.96314">
        <ele>1002.79</ele>
        <time>2015-03-03T13:07:16Z</time>
      </trkpt>
      <trkpt lat="48.00797" lon="6.96288">
        <ele>1003.75</ele>
        <time>2015-03-03T13:07:38Z</time>
      </trkpt>
      <trkpt lat="48.00814" lon="6.96264">
        <ele>1003.27</ele>
        <time>2015-03-03T13:08:01Z</time>
      </trkpt>
      <trkpt lat="48.00833" lon="6.96235">
        <ele>1002.79</ele>
        <time>2015-03-03T13:08:35Z</time>
      </trkpt>
      <trkpt lat="48.00853" lon="6.96212">
        <ele>1002.31</ele>
        <time>2015-03-03T13:08:53Z</time>
      </trkpt>
      <trkpt lat="48.0087" lon="6.96191">
        <ele>1001.35</ele>
        <time>2015-03-03T13:09:15Z</time>
      </trkpt>
      <trkpt lat="48.00908" lon="6.96171">
        <ele>1001.35</ele>
        <time>2015-03-03T13:09:57Z</time>
      </trkpt>
      <trkpt lat="48.00929" lon="6.96143">
        <ele>1001.83</ele>
        <time>2015-03-03T13:10:26Z</time>
      </trkpt>
      <trkpt lat="48.0094" lon="6.96115">
        <ele>1001.35</ele>
        <time>2015-03-03T13:10:47Z</time>
      </trkpt>
      <trkpt lat="48.00943" lon="6.96082">
        <ele>1001.35</ele>
        <time>2015-03-03T13:11:07Z</time>
      </trkpt>
      <trkpt lat="48.00949" lon="6.96059">
        <ele>1001.35</ele>
        <time>2015-03-03T13:11:30Z</time>
      </trkpt>
      <trkpt lat="48.00955" lon="6.96031">
        <ele>1001.35</ele>
        <time>2015-03-03T13:11:50Z</time>
      </trkpt>
      <trkpt lat="48.00952" lon="6.96002">
        <ele>1000.87</ele>
        <time>2015-03-03T13:12:12Z</time>
      </trkpt>
      <trkpt lat="48.00952" lon="6.95959">
        <ele>1000.87</ele>
        <time>2015-03-03T13:12:39Z</time>
      </trkpt>
      <trkpt lat="48.00962" lon="6.95929">
        <ele>1000.39</ele>
        <time>2015-03-03T13:13:05Z</time>
      </trkpt>
      <trkpt lat="48.00964" lon="6.95901">
        <ele>1000.39</ele>
        <time>2015-03-03T13:13:33Z</time>
      </trkpt>
      <trkpt lat="48.00966" lon="6.95861">
        <ele>998.47</ele>
        <time>2015-03-03T13:13:54Z</time>
      </trkpt>
      <trkpt lat="48.00969" lon="6.95831">
        <ele>997.99</ele>
        <time>2015-03-03T13:14:12Z</time>
      </trkpt>
      <trkpt lat="48.0097" lon="6.95801">
        <ele>996.54</ele>
        <time>2015-03-03T13:14:31Z</time>
      </trkpt>
      <trkpt lat="48.00977" lon="6.95771">
        <ele>994.14</ele>
        <time>2015-03-03T13:14:52Z</time>
      </trkpt>
      <trkpt lat="48.0099" lon="6.95749">
        <ele>992.22</ele>
        <time>2015-03-03T13:15:12Z</time>
      </trkpt>
      <trkpt lat="48.01001" lon="6.95724">
        <ele>989.33</ele>
        <time>2015-03-03T13:15:31Z</time>
      </trkpt>
      <trkpt lat="48.01013" lon="6.95698">
        <ele>988.37</ele>
        <time>2015-03-03T13:16:06Z</time>
      </trkpt>
      <trkpt lat="48.01009" lon="6.95679">
        <ele>986.93</ele>
        <time>2015-03-03T13:18:57Z</time>
      </trkpt>
      <trkpt lat="48.0101" lon="6.9568">
        <ele>987.41</ele>
        <time>2015-03-03T13:21:06Z</time>
      </trkpt>
      <trkpt lat="48.01014" lon="6.95665">
        <ele>986.45</ele>
        <time>2015-03-03T13:32:42Z</time>
      </trkpt>
      <trkpt lat="48.01032" lon="6.95658">
        <ele>985.01</ele>
        <time>2015-03-03T13:33:34Z</time>
      </trkpt>
      <trkpt lat="48.0105" lon="6.95639">
        <ele>985.97</ele>
        <time>2015-03-03T13:33:58Z</time>
      </trkpt>
      <trkpt lat="48.01062" lon="6.95612">
        <ele>986.93</ele>
        <time>2015-03-03T13:34:22Z</time>
      </trkpt>
      <trkpt lat="48.01077" lon="6.95581">
        <ele>987.89</ele>
        <time>2015-03-03T13:34:47Z</time>
      </trkpt>
      <trkpt lat="48.01093" lon="6.95564">
        <ele>988.85</ele>
        <time>2015-03-03T13:35:11Z</time>
      </trkpt>
      <trkpt lat="48.01114" lon="6.95541">
        <ele>989.81</ele>
        <time>2015-03-03T13:35:42Z</time>
      </trkpt>
      <trkpt lat="48.01131" lon="6.95528">
        <ele>990.3</ele>
        <time>2015-03-03T13:36:10Z</time>
      </trkpt>
      <trkpt lat="48.01153" lon="6.95506">
        <ele>992.22</ele>
        <time>2015-03-03T13:36:39Z</time>
      </trkpt>
      <trkpt lat="48.01172" lon="6.95487">
        <ele>993.18</ele>
        <time>2015-03-03T13:37:41Z</time>
      </trkpt>
      <trkpt lat="48.01185" lon="6.95464">
        <ele>995.1</ele>
        <time>2015-03-03T13:38:08Z</time>
      </trkpt>
      <trkpt lat="48.01215" lon="6.95447">
        <ele>996.54</ele>
        <time>2015-03-03T13:38:44Z</time>
      </trkpt>
      <trkpt lat="48.01243" lon="6.95423">
        <ele>999.43</ele>
        <time>2015-03-03T13:39:27Z</time>
      </trkpt>
      <trkpt lat="48.01282" lon="6.95417">
        <ele>999.91</ele>
        <time>2015-03-03T13:40:07Z</time>
      </trkpt>
      <trkpt lat="48.01312" lon="6.95399">
        <ele>1000.87</ele>
        <time>2015-03-03T13:40:43Z</time>
      </trkpt>
      <trkpt lat="48.01342" lon="6.9539">
        <ele>1002.79</ele>
        <time>2015-03-03T13:41:19Z</time>
      </trkpt>
      <trkpt lat="48.01371" lon="6.95377">
        <ele>1004.72</ele>
        <time>2015-03-03T13:41:54Z</time>
      </trkpt>
      <trkpt lat="48.01419" lon="6.95376">
        <ele>1007.12</ele>
        <time>2015-03-03T13:42:44Z</time>
      </trkpt>
      <trkpt lat="48.01444" lon="6.95376">
        <ele>1008.56</ele>
        <time>2015-03-03T13:43:15Z</time>
      </trkpt>
      <trkpt lat="48.01479" lon="6.95374">
        <ele>1009.52</ele>
        <time>2015-03-03T13:43:49Z</time>
      </trkpt>
      <trkpt lat="48.01503" lon="6.95373">
        <ele>1011.44</ele>
        <time>2015-03-03T13:44:21Z</time>
      </trkpt>
      <trkpt lat="48.01524" lon="6.95381">
        <ele>1012.41</ele>
        <time>2015-03-03T13:44:47Z</time>
      </trkpt>
      <trkpt lat="48.01542" lon="6.95395">
        <ele>1013.85</ele>
        <time>2015-03-03T13:45:14Z</time>
      </trkpt>
      <trkpt lat="48.01561" lon="6.95412">
        <ele>1014.81</ele>
        <time>2015-03-03T13:45:40Z</time>
      </trkpt>
      <trkpt lat="48.01578" lon="6.95435">
        <ele>1015.77</ele>
        <time>2015-03-03T13:46:06Z</time>
      </trkpt>
      <trkpt lat="48.01593" lon="6.95462">
        <ele>1017.21</ele>
        <time>2015-03-03T13:46:34Z</time>
      </trkpt>
      <trkpt lat="48.01603" lon="6.9549">
        <ele>1017.69</ele>
        <time>2015-03-03T13:47:00Z</time>
      </trkpt>
      <trkpt lat="48.01614" lon="6.95517">
        <ele>1018.65</ele>
        <time>2015-03-03T13:47:27Z</time>
      </trkpt>
      <trkpt lat="48.01624" lon="6.95547">
        <ele>1019.13</ele>
        <time>2015-03-03T13:47:56Z</time>
      </trkpt>
      <trkpt lat="48.01631" lon="6.95581">
        <ele>1020.1</ele>
        <time>2015-03-03T13:48:25Z</time>
      </trkpt>
      <trkpt lat="48.01639" lon="6.95614">
        <ele>1021.54</ele>
        <time>2015-03-03T13:48:52Z</time>
      </trkpt>
      <trkpt lat="48.01654" lon="6.95647">
        <ele>1022.5</ele>
        <time>2015-03-03T13:49:20Z</time>
      </trkpt>
      <trkpt lat="48.01657" lon="6.95679">
        <ele>1022.5</ele>
        <time>2015-03-03T13:49:47Z</time>
      </trkpt>
      <trkpt lat="48.01668" lon="6.95703">
        <ele>1023.94</ele>
        <time>2015-03-03T13:53:57Z</time>
      </trkpt>
      <trkpt lat="48.01673" lon="6.95704">
        <ele>1026.34</ele>
        <time>2015-03-03T14:08:37Z</time>
      </trkpt>
      <trkpt lat="48.01671" lon="6.95738">
        <ele>1027.79</ele>
        <time>2015-03-03T14:10:31Z</time>
      </trkpt>
      <trkpt lat="48.01675" lon="6.95768">
        <ele>1028.75</ele>
        <time>2015-03-03T14:11:01Z</time>
      </trkpt>
      <trkpt lat="48.01682" lon="6.95799">
        <ele>1029.23</ele>
        <time>2015-03-03T14:11:31Z</time>
      </trkpt>
      <trkpt lat="48.01688" lon="6.95838">
        <ele>1030.67</ele>
        <time>2015-03-03T14:12:00Z</time>
      </trkpt>
      <trkpt lat="48.01694" lon="6.95872">
        <ele>1030.67</ele>
        <time>2015-03-03T14:12:27Z</time>
      </trkpt>
      <trkpt lat="48.01699" lon="6.95901">
        <ele>1031.63</ele>
        <time>2015-03-03T14:12:54Z</time>
      </trkpt>
      <trkpt lat="48.01698" lon="6.95935">
        <ele>1032.59</ele>
        <time>2015-03-03T14:13:23Z</time>
      </trkpt>
      <trkpt lat="48.01699" lon="6.95968">
        <ele>1034.04</ele>
        <time>2015-03-03T14:13:51Z</time>
      </trkpt>
      <trkpt lat="48.0169" lon="6.95999">
        <ele>1035</ele>
        <time>2015-03-03T14:14:17Z</time>
      </trkpt>
      <trkpt lat="48.01686" lon="6.96033">
        <ele>1036.92</ele>
        <time>2015-03-03T14:14:43Z</time>
      </trkpt>
      <trkpt lat="48.01686" lon="6.96062">
        <ele>1037.88</ele>
        <time>2015-03-03T14:15:09Z</time>
      </trkpt>
      <trkpt lat="48.01681" lon="6.96099">
        <ele>1040.28</ele>
        <time>2015-03-03T14:15:41Z</time>
      </trkpt>
      <trkpt lat="48.01689" lon="6.96135">
        <ele>1041.73</ele>
        <time>2015-03-03T14:16:11Z</time>
      </trkpt>
      <trkpt lat="48.01707" lon="6.96151">
        <ele>1042.69</ele>
        <time>2015-03-03T14:16:34Z</time>
      </trkpt>
      <trkpt lat="48.01732" lon="6.9616">
        <ele>1043.17</ele>
        <time>2015-03-03T14:17:03Z</time>
      </trkpt>
      <trkpt lat="48.01771" lon="6.96154">
        <ele>1044.13</ele>
        <time>2015-03-03T14:17:43Z</time>
      </trkpt>
      <trkpt lat="48.0181" lon="6.96144">
        <ele>1045.09</ele>
        <time>2015-03-03T14:18:21Z</time>
      </trkpt>
      <trkpt lat="48.01854" lon="6.96139">
        <ele>1047.97</ele>
        <time>2015-03-03T14:19:10Z</time>
      </trkpt>
      <trkpt lat="48.01898" lon="6.96121">
        <ele>1049.9</ele>
        <time>2015-03-03T14:19:56Z</time>
      </trkpt>
      <trkpt lat="48.01928" lon="6.96108">
        <ele>1051.82</ele>
        <time>2015-03-03T14:20:30Z</time>
      </trkpt>
      <trkpt lat="48.01958" lon="6.96079">
        <ele>1053.74</ele>
        <time>2015-03-03T14:21:07Z</time>
      </trkpt>
      <trkpt lat="48.01978" lon="6.96057">
        <ele>1055.18</ele>
        <time>2015-03-03T14:21:40Z</time>
      </trkpt>
      <trkpt lat="48.02014" lon="6.9606">
        <ele>1056.15</ele>
        <time>2015-03-03T14:22:24Z</time>
      </trkpt>
      <trkpt lat="48.02035" lon="6.96077">
        <ele>1056.15</ele>
        <time>2015-03-03T14:22:49Z</time>
      </trkpt>
      <trkpt lat="48.02045" lon="6.96095">
        <ele>1055.67</ele>
        <time>2015-03-03T14:24:10Z</time>
      </trkpt>
      <trkpt lat="48.0204" lon="6.96121">
        <ele>1054.7</ele>
        <time>2015-03-03T14:24:35Z</time>
      </trkpt>
      <trkpt lat="48.02023" lon="6.9614">
        <ele>1053.26</ele>
        <time>2015-03-03T14:25:13Z</time>
      </trkpt>
      <trkpt lat="48.02009" lon="6.96163">
        <ele>1050.86</ele>
        <time>2015-03-03T14:25:34Z</time>
      </trkpt>
      <trkpt lat="48.01993" lon="6.96187">
        <ele>1048.94</ele>
        <time>2015-03-03T14:25:59Z</time>
      </trkpt>
      <trkpt lat="48.01975" lon="6.96213">
        <ele>1047.01</ele>
        <time>2015-03-03T14:26:25Z</time>
      </trkpt>
      <trkpt lat="48.0196" lon="6.96235">
        <ele>1044.61</ele>
        <time>2015-03-03T14:26:45Z</time>
      </trkpt>
      <trkpt lat="48.01948" lon="6.96262">
        <ele>1043.17</ele>
        <time>2015-03-03T14:27:06Z</time>
      </trkpt>
      <trkpt lat="48.01938" lon="6.96288">
        <ele>1042.21</ele>
        <time>2015-03-03T14:27:26Z</time>
      </trkpt>
      <trkpt lat="48.01921" lon="6.96312">
        <ele>1040.76</ele>
        <time>2015-03-03T14:27:49Z</time>
      </trkpt>
      <trkpt lat="48.01913" lon="6.96339">
        <ele>1039.8</ele>
        <time>2015-03-03T14:28:10Z</time>
      </trkpt>
      <trkpt lat="48.01901" lon="6.96364">
        <ele>1038.84</ele>
        <time>2015-03-03T14:28:31Z</time>
      </trkpt>
      <trkpt lat="48.01887" lon="6.96385">
        <ele>1038.84</ele>
        <time>2015-03-03T14:28:54Z</time>
      </trkpt>
      <trkpt lat="48.01871" lon="6.96402">
        <ele>1040.28</ele>
        <time>2015-03-03T14:29:18Z</time>
      </trkpt>
      <trkpt lat="48.01859" lon="6.96434">
        <ele>1040.28</ele>
        <time>2015-03-03T14:29:39Z</time>
      </trkpt>
      <trkpt lat="48.01865" lon="6.96464">
        <ele>1040.76</ele>
        <time>2015-03-03T14:30:02Z</time>
      </trkpt>
      <trkpt lat="48.01871" lon="6.96492">
        <ele>1041.25</ele>
        <time>2015-03-03T14:30:24Z</time>
      </trkpt>
      <trkpt lat="48.01864" lon="6.96525">
        <ele>1039.32</ele>
        <time>2015-03-03T14:30:48Z</time>
      </trkpt>
      <trkpt lat="48.01861" lon="6.96557">
        <ele>1036.44</ele>
        <time>2015-03-03T14:31:13Z</time>
      </trkpt>
      <trkpt lat="48.01863" lon="6.96589">
        <ele>1033.55</ele>
        <time>2015-03-03T14:31:33Z</time>
      </trkpt>
      <trkpt lat="48.01855" lon="6.9662">
        <ele>1031.15</ele>
        <time>2015-03-03T14:31:55Z</time>
      </trkpt>
      <trkpt lat="48.01841" lon="6.96656">
        <ele>1028.75</ele>
        <time>2015-03-03T14:32:20Z</time>
      </trkpt>
      <trkpt lat="48.01834" lon="6.96682">
        <ele>1026.83</ele>
        <time>2015-03-03T14:32:42Z</time>
      </trkpt>
      <trkpt lat="48.01819" lon="6.96704">
        <ele>1025.38</ele>
        <time>2015-03-03T14:33:03Z</time>
      </trkpt>
      <trkpt lat="48.018" lon="6.96728">
        <ele>1023.46</ele>
        <time>2015-03-03T14:33:31Z</time>
      </trkpt>
      <trkpt lat="48.01791" lon="6.96752">
        <ele>1022.02</ele>
        <time>2015-03-03T14:33:50Z</time>
      </trkpt>
      <trkpt lat="48.01781" lon="6.96774">
        <ele>1021.06</ele>
        <time>2015-03-03T14:34:08Z</time>
      </trkpt>
      <trkpt lat="48.01781" lon="6.96798">
        <ele>1019.62</ele>
        <time>2015-03-03T14:34:38Z</time>
      </trkpt>
      <trkpt lat="48.01782" lon="6.96835">
        <ele>1017.69</ele>
        <time>2015-03-03T14:35:00Z</time>
      </trkpt>
      <trkpt lat="48.01775" lon="6.96867">
        <ele>1016.73</ele>
        <time>2015-03-03T14:35:38Z</time>
      </trkpt>
      <trkpt lat="48.01777" lon="6.96897">
        <ele>1015.29</ele>
        <time>2015-03-03T14:35:58Z</time>
      </trkpt>
      <trkpt lat="48.01777" lon="6.96931">
        <ele>1014.33</ele>
        <time>2015-03-03T14:36:25Z</time>
      </trkpt>
      <trkpt lat="48.01781" lon="6.96958">
        <ele>1013.37</ele>
        <time>2015-03-03T14:36:42Z</time>
      </trkpt>
      <trkpt lat="48.01787" lon="6.96978">
        <ele>1012.41</ele>
        <time>2015-03-03T14:36:57Z</time>
      </trkpt>
      <trkpt lat="48.01795" lon="6.96997">
        <ele>1011.44</ele>
        <time>2015-03-03T14:37:11Z</time>
      </trkpt>
      <trkpt lat="48.01805" lon="6.97017">
        <ele>1010.96</ele>
        <time>2015-03-03T14:37:27Z</time>
      </trkpt>
      <trkpt lat="48.01813" lon="6.97037">
        <ele>1010.48</ele>
        <time>2015-03-03T14:37:44Z</time>
      </trkpt>
      <trkpt lat="48.01824" lon="6.97058">
        <ele>1008.56</ele>
        <time>2015-03-03T14:38:02Z</time>
      </trkpt>
      <trkpt lat="48.01834" lon="6.97071">
        <ele>1007.6</ele>
        <time>2015-03-03T14:38:16Z</time>
      </trkpt>
      <trkpt lat="48.01845" lon="6.97096">
        <ele>1006.16</ele>
        <time>2015-03-03T14:38:42Z</time>
      </trkpt>
      <trkpt lat="48.01857" lon="6.97118">
        <ele>1005.2</ele>
        <time>2015-03-03T14:39:03Z</time>
      </trkpt>
      <trkpt lat="48.01875" lon="6.97145">
        <ele>1003.27</ele>
        <time>2015-03-03T14:39:30Z</time>
      </trkpt>
      <trkpt lat="48.01886" lon="6.9717">
        <ele>1001.83</ele>
        <time>2015-03-03T14:39:49Z</time>
      </trkpt>
      <trkpt lat="48.01897" lon="6.97189">
        <ele>1000.39</ele>
        <time>2015-03-03T14:40:07Z</time>
      </trkpt>
      <trkpt lat="48.01907" lon="6.97214">
        <ele>998.95</ele>
        <time>2015-03-03T14:40:28Z</time>
      </trkpt>
      <trkpt lat="48.01913" lon="6.9724">
        <ele>997.99</ele>
        <time>2015-03-03T14:40:53Z</time>
      </trkpt>
      <trkpt lat="48.01916" lon="6.97246">
        <ele>996.54</ele>
        <time>2015-03-03T14:43:44Z</time>
      </trkpt>
      <trkpt lat="48.01927" lon="6.97274">
        <ele>995.1</ele>
        <time>2015-03-03T14:44:26Z</time>
      </trkpt>
      <trkpt lat="48.01934" lon="6.97301">
        <ele>993.18</ele>
        <time>2015-03-03T14:44:51Z</time>
      </trkpt>
      <trkpt lat="48.01959" lon="6.97284">
        <ele>992.22</ele>
        <time>2015-03-03T14:45:13Z</time>
      </trkpt>
      <trkpt lat="48.01975" lon="6.9725">
        <ele>992.22</ele>
        <time>2015-03-03T14:45:36Z</time>
      </trkpt>
      <trkpt lat="48.01951" lon="6.97258">
        <ele>991.74</ele>
        <time>2015-03-03T14:47:45Z</time>
      </trkpt>
      <trkpt lat="48.01947" lon="6.9725">
        <ele>988.85</ele>
        <time>2015-03-03T14:48:59Z</time>
      </trkpt>
      <trkpt lat="48.01961" lon="6.97248">
        <ele>991.74</ele>
        <time>2015-03-03T14:50:38Z</time>
      </trkpt>
      <trkpt lat="48.01975" lon="6.9722">
        <ele>987.89</ele>
        <time>2015-03-03T14:53:00Z</time>
      </trkpt>
      <trkpt lat="48.01967" lon="6.97183">
        <ele>981.16</ele>
        <time>2015-03-03T14:54:01Z</time>
      </trkpt>
      <trkpt lat="48.01969" lon="6.9715">
        <ele>979.72</ele>
        <time>2015-03-03T14:54:35Z</time>
      </trkpt>
      <trkpt lat="48.0197" lon="6.97103">
        <ele>977.8</ele>
        <time>2015-03-03T14:55:01Z</time>
      </trkpt>
      <trkpt lat="48.01981" lon="6.97061">
        <ele>974.43</ele>
        <time>2015-03-03T14:55:38Z</time>
      </trkpt>
      <trkpt lat="48.01984" lon="6.97022">
        <ele>966.74</ele>
        <time>2015-03-03T14:56:17Z</time>
      </trkpt>
      <trkpt lat="48.01989" lon="6.96985">
        <ele>965.78</ele>
        <time>2015-03-03T14:57:07Z</time>
      </trkpt>
      <trkpt lat="48.01991" lon="6.96949">
        <ele>961.94</ele>
        <time>2015-03-03T14:57:36Z</time>
      </trkpt>
      <trkpt lat="48.01991" lon="6.96907">
        <ele>955.69</ele>
        <time>2015-03-03T14:58:11Z</time>
      </trkpt>
      <trkpt lat="48.01998" lon="6.96871">
        <ele>952.8</ele>
        <time>2015-03-03T14:58:46Z</time>
      </trkpt>
      <trkpt lat="48.02011" lon="6.96837">
        <ele>948.96</ele>
        <time>2015-03-03T14:59:16Z</time>
      </trkpt>
      <trkpt lat="48.02015" lon="6.96803">
        <ele>946.56</ele>
        <time>2015-03-03T14:59:39Z</time>
      </trkpt>
      <trkpt lat="48.02021" lon="6.96759">
        <ele>943.19</ele>
        <time>2015-03-03T15:00:17Z</time>
      </trkpt>
      <trkpt lat="48.02032" lon="6.96718">
        <ele>938.38</ele>
        <time>2015-03-03T15:00:48Z</time>
      </trkpt>
      <trkpt lat="48.02047" lon="6.96693">
        <ele>934.06</ele>
        <time>2015-03-03T15:01:10Z</time>
      </trkpt>
      <trkpt lat="48.02063" lon="6.96671">
        <ele>930.21</ele>
        <time>2015-03-03T15:01:35Z</time>
      </trkpt>
      <trkpt lat="48.02084" lon="6.96649">
        <ele>929.25</ele>
        <time>2015-03-03T15:02:00Z</time>
      </trkpt>
      <trkpt lat="48.02106" lon="6.96632">
        <ele>925.41</ele>
        <time>2015-03-03T15:02:31Z</time>
      </trkpt>
      <trkpt lat="48.02127" lon="6.96613">
        <ele>922.52</ele>
        <time>2015-03-03T15:02:58Z</time>
      </trkpt>
      <trkpt lat="48.02142" lon="6.96599">
        <ele>918.68</ele>
        <time>2015-03-03T15:04:57Z</time>
      </trkpt>
      <trkpt lat="48.02173" lon="6.96581">
        <ele>911.95</ele>
        <time>2015-03-03T15:05:33Z</time>
      </trkpt>
      <trkpt lat="48.02201" lon="6.96555">
        <ele>907.62</ele>
        <time>2015-03-03T15:06:04Z</time>
      </trkpt>
      <trkpt lat="48.02221" lon="6.96537">
        <ele>904.26</ele>
        <time>2015-03-03T15:06:27Z</time>
      </trkpt>
      <trkpt lat="48.02238" lon="6.96519">
        <ele>899.93</ele>
        <time>2015-03-03T15:06:47Z</time>
      </trkpt>
      <trkpt lat="48.02232" lon="6.96485">
        <ele>895.61</ele>
        <time>2015-03-03T15:07:15Z</time>
      </trkpt>
      <trkpt lat="48.02236" lon="6.96452">
        <ele>894.16</ele>
        <time>2015-03-03T15:07:41Z</time>
      </trkpt>
      <trkpt lat="48.02257" lon="6.96441">
        <ele>891.76</ele>
        <time>2015-03-03T15:08:07Z</time>
      </trkpt>
      <trkpt lat="48.02263" lon="6.96402">
        <ele>889.84</ele>
        <time>2015-03-03T15:08:31Z</time>
      </trkpt>
      <trkpt lat="48.0229" lon="6.96376">
        <ele>887.43</ele>
        <time>2015-03-03T15:09:06Z</time>
      </trkpt>
      <trkpt lat="48.02307" lon="6.9636">
        <ele>886.95</ele>
        <time>2015-03-03T15:11:04Z</time>
      </trkpt>
      <trkpt lat="48.02327" lon="6.96324">
        <ele>889.36</ele>
        <time>2015-03-03T15:11:41Z</time>
      </trkpt>
      <trkpt lat="48.02353" lon="6.96305">
        <ele>883.11</ele>
        <time>2015-03-03T15:12:24Z</time>
      </trkpt>
      <trkpt lat="48.02375" lon="6.96267">
        <ele>880.22</ele>
        <time>2015-03-03T15:13:12Z</time>
      </trkpt>
      <trkpt lat="48.02397" lon="6.96221">
        <ele>876.86</ele>
        <time>2015-03-03T15:13:56Z</time>
      </trkpt>
      <trkpt lat="48.02423" lon="6.96176">
        <ele>870.61</ele>
        <time>2015-03-03T15:14:59Z</time>
      </trkpt>
      <trkpt lat="48.02429" lon="6.96131">
        <ele>868.21</ele>
        <time>2015-03-03T15:15:54Z</time>
      </trkpt>
      <trkpt lat="48.02428" lon="6.96087">
        <ele>866.29</ele>
        <time>2015-03-03T15:16:50Z</time>
      </trkpt>
      <trkpt lat="48.02431" lon="6.96052">
        <ele>862.44</ele>
        <time>2015-03-03T15:17:28Z</time>
      </trkpt>
      <trkpt lat="48.02438" lon="6.96014">
        <ele>857.15</ele>
        <time>2015-03-03T15:17:57Z</time>
      </trkpt>
      <trkpt lat="48.0245" lon="6.95971">
        <ele>855.23</ele>
        <time>2015-03-03T15:18:31Z</time>
      </trkpt>
      <trkpt lat="48.02458" lon="6.95945">
        <ele>852.35</ele>
        <time>2015-03-03T15:19:03Z</time>
      </trkpt>
      <trkpt lat="48.02449" lon="6.9594">
        <ele>851.87</ele>
        <time>2015-03-03T15:20:31Z</time>
      </trkpt>
      <trkpt lat="48.02467" lon="6.95943">
        <ele>849.46</ele>
        <time>2015-03-03T15:22:39Z</time>
      </trkpt>
      <trkpt lat="48.02483" lon="6.95938">
        <ele>849.46</ele>
        <time>2015-03-03T15:23:31Z</time>
      </trkpt>
      <trkpt lat="48.02492" lon="6.95969">
        <ele>849.94</ele>
        <time>2015-03-03T15:23:52Z</time>
      </trkpt>
    </trkseg>
  </trk>
</gpx>